createdAt,value
2023-04-02T00:00:10.213Z,10.40
2023-04-02T00:03:11.021Z,10.15
2023-04-02T00:05:54.738Z,10.04
2023-04-02T00:08:24.596Z,10.18
2023-04-02T00:10:59.521Z,10.39
2023-04-02T00:13:34.461Z,10.39
2023-04-02T00:16:06.298Z,10.36
2023-04-02T00:18:40.186Z,10.50
2023-04-02T00:21:38.232Z,10.46
2023-04-02T00:24:14.243Z,10.49
2023-04-02T00:26:54.835Z,10.47
2023-04-02T00:29:27.535Z,10.44
2023-04-02T00:32:00.178Z,10.34
2023-04-02T00:34:47.318Z,10.31
2023-04-02T00:37:44.480Z,10.54
2023-04-02T00:40:24.980Z,10.58
2023-04-02T00:42:56.172Z,10.88
2023-04-02T00:45:37.971Z,9.07
2023-04-02T00:48:43.842Z,7.76
2023-04-02T00:51:26.508Z,9.01
2023-04-02T00:54:02.932Z,9.23
2023-04-02T00:56:44.568Z,9.03
2023-04-02T00:59:31.424Z,8.62
2023-04-02T01:02:30.211Z,8.91
2023-04-02T01:05:29.382Z,8.84
2023-04-02T01:08:20.569Z,9.09
2023-04-02T01:11:04.495Z,9.28
2023-04-02T01:13:49.777Z,9.55
2023-04-02T01:16:46.760Z,9.75
2023-04-02T01:19:30.419Z,9.24
2023-04-02T01:22:22.558Z,9.08
2023-04-02T01:24:55.398Z,9.61
2023-04-02T01:27:38.092Z,9.83
2023-04-02T01:30:13.035Z,9.81
2023-04-02T01:32:45.675Z,10.04
2023-04-02T01:35:14.175Z,9.88
2023-04-02T01:37:53.420Z,9.73
2023-04-02T01:40:52.463Z,9.87
2023-04-02T01:43:52.429Z,9.43
2023-04-02T01:46:49.069Z,9.61
2023-04-02T01:49:21.505Z,9.41
2023-04-02T01:51:57.224Z,9.59
2023-04-02T01:54:31.524Z,9.64
2023-04-02T01:57:02.601Z,9.79
2023-04-02T01:59:33.914Z,9.84
2023-04-02T02:02:29.969Z,9.91
2023-04-02T02:04:57.273Z,9.92
2023-04-02T02:07:28.696Z,10.07
2023-04-02T02:10:02.427Z,10.23
2023-04-02T02:12:33.762Z,10.11
2023-04-02T02:15:01.303Z,10.10
2023-04-02T02:17:35.003Z,10.00
2023-04-02T02:20:11.053Z,9.95
2023-04-02T02:22:45.101Z,10.12
2023-04-02T02:25:21.032Z,10.24
2023-04-02T02:27:58.822Z,10.24
2023-04-02T02:30:54.631Z,10.38
2023-04-02T02:33:54.972Z,10.34
2023-04-02T02:36:49.707Z,10.44
2023-04-02T02:42:42.433Z,10.55
2023-04-02T02:45:26.442Z,10.36
2023-04-02T02:47:59.520Z,9.26
2023-04-02T02:50:39.080Z,8.41
2023-04-02T02:53:24.588Z,9.01
2023-04-02T02:56:00.040Z,7.27
2023-04-02T02:58:37.280Z,7.05
2023-04-02T03:01:21.176Z,8.35
2023-04-02T03:04:20.896Z,8.37
2023-04-02T03:06:54.566Z,8.68
2023-04-02T03:09:52.148Z,8.83
2023-04-02T03:12:45.273Z,8.73
2023-04-02T03:16:03.666Z,9.15
2023-04-02T03:18:45.233Z,9.27
2023-04-02T03:21:51.840Z,9.31
2023-04-02T03:24:59.857Z,9.03
2023-04-02T03:27:37.598Z,9.13
2023-04-02T03:30:55.468Z,9.27
2023-04-02T03:33:36.342Z,9.46
2023-04-02T03:36:22.640Z,9.57
2023-04-02T03:39:15.166Z,9.70
2023-04-02T03:42:17.304Z,9.78
2023-04-02T03:45:27.632Z,9.83
2023-04-02T03:48:59.308Z,9.95
2023-04-02T03:52:06.525Z,9.91
2023-04-02T03:54:53.658Z,9.94
2023-04-02T03:57:46.145Z,10.07
2023-04-02T04:00:44.489Z,9.95
2023-04-02T04:03:46.173Z,9.37
2023-04-02T04:06:56.831Z,9.87
2023-04-02T04:12:52.186Z,9.68
2023-04-02T04:16:26.590Z,8.68
2023-04-02T04:19:07.127Z,9.15
2023-04-02T04:21:39.895Z,9.05
2023-04-02T04:24:22.041Z,8.67
2023-04-02T04:27:26.033Z,9.00
2023-04-02T04:30:23.733Z,9.20
2023-04-02T04:33:05.375Z,9.21
2023-04-02T04:35:40.371Z,8.93
2023-04-02T04:38:39.279Z,8.76
2023-04-02T04:41:32.799Z,8.77
2023-04-02T04:44:38.736Z,8.72
2023-04-02T04:47:50.210Z,8.62
2023-04-02T04:50:54.853Z,8.86
2023-04-02T04:53:31.114Z,8.06
2023-04-02T04:56:18.838Z,8.41
2023-04-02T04:58:59.237Z,8.34
2023-04-02T05:01:42.126Z,8.63
2023-04-02T05:04:40.308Z,8.72
2023-04-02T05:07:28.335Z,8.71
2023-04-02T05:10:36.043Z,9.00
2023-04-02T05:13:43.385Z,9.22
2023-04-02T05:16:23.465Z,9.64
2023-04-02T05:19:10.326Z,7.51
2023-04-02T05:21:48.786Z,8.59
2023-04-02T05:25:02.600Z,8.99
2023-04-02T05:28:26.938Z,9.06
2023-04-02T05:31:12.487Z,9.45
2023-04-02T05:33:50.824Z,9.96
2023-04-02T05:36:41.155Z,10.31
2023-04-02T05:39:12.141Z,10.31
2023-04-02T05:41:56.612Z,10.47
2023-04-02T05:44:35.797Z,10.51
2023-04-02T05:47:31.562Z,10.82
2023-04-02T05:50:14.920Z,10.97
2023-04-02T05:53:27.007Z,10.97
2023-04-02T05:56:30.532Z,11.28
2023-04-02T05:59:33.986Z,11.40
2023-04-02T06:02:30.968Z,11.48
2023-04-02T06:05:20.478Z,11.62
2023-04-02T06:08:04.290Z,11.77
2023-04-02T06:11:18.410Z,12.20
2023-04-02T06:13:48.605Z,12.40
2023-04-02T06:16:32.562Z,12.88
2023-04-02T06:19:04.038Z,13.17
2023-04-02T06:21:36.743Z,13.33
2023-04-02T06:24:18.516Z,13.71
2023-04-02T06:27:02.623Z,13.94
2023-04-02T06:29:42.596Z,13.61
2023-04-02T06:32:15.907Z,14.01
2023-04-02T06:34:46.058Z,13.93
2023-04-02T06:37:48.844Z,13.95
2023-04-02T06:40:59.650Z,14.12
2023-04-02T06:43:36.605Z,14.34
2023-04-02T06:46:31.177Z,14.30
2023-04-02T06:49:44.405Z,14.37
2023-04-02T06:52:44.991Z,14.84
2023-04-02T06:56:15.506Z,15.02
2023-04-02T06:58:47.273Z,15.22
2023-04-02T07:01:31.047Z,15.49
2023-04-02T07:03:58.682Z,15.46
2023-04-02T07:06:28.565Z,15.36
2023-04-02T07:09:04.384Z,15.28
2023-04-02T07:11:37.022Z,15.14
2023-04-02T07:14:04.923Z,15.30
2023-04-02T07:16:35.365Z,15.55
2023-04-02T07:19:11.672Z,15.87
2023-04-02T07:21:39.075Z,15.65
2023-04-02T07:24:08.805Z,15.98
2023-04-02T07:26:36.675Z,16.20
2023-04-02T07:29:08.259Z,16.13
2023-04-02T07:31:39.439Z,16.47
2023-04-02T07:34:14.486Z,16.37
2023-04-02T07:36:52.407Z,15.68
2023-04-02T07:39:22.374Z,15.80
2023-04-02T07:41:59.864Z,16.23
2023-04-02T07:44:31.052Z,16.55
2023-04-02T07:46:58.229Z,16.78
2023-04-02T07:49:36.689Z,16.78
2023-04-02T07:52:04.105Z,16.23
2023-04-02T07:54:31.483Z,16.36
2023-04-02T07:57:02.554Z,16.77
2023-04-02T07:59:43.121Z,16.73
2023-04-02T08:02:25.452Z,17.05
2023-04-02T08:04:56.966Z,17.24
2023-04-02T08:07:30.330Z,17.02
2023-04-02T08:10:14.369Z,17.04
2023-04-02T08:12:46.563Z,16.96
2023-04-02T08:15:29.323Z,17.68
2023-04-02T08:18:04.443Z,18.01
2023-04-02T08:20:43.706Z,18.37
2023-04-02T08:23:29.093Z,17.61
2023-04-02T08:25:56.363Z,17.96
2023-04-02T08:28:24.038Z,18.00
2023-04-02T08:30:52.832Z,18.07
2023-04-02T08:33:20.422Z,18.25
2023-04-02T08:35:50.738Z,18.62
2023-04-02T08:38:24.765Z,19.24
2023-04-02T08:41:02.845Z,18.90
2023-04-02T08:43:38.840Z,19.36
2023-04-02T08:46:52.835Z,20.04
2023-04-02T08:50:10.693Z,20.32
2023-04-02T08:52:44.141Z,19.28
2023-04-02T08:55:30.055Z,20.62
2023-04-02T08:58:46.036Z,20.68
2023-04-02T09:01:53.938Z,19.25
2023-04-02T09:04:28.568Z,19.88
2023-04-02T09:07:09.820Z,20.65
2023-04-02T09:09:40.969Z,21.05
2023-04-02T09:12:25.486Z,21.06
2023-04-02T09:18:24.280Z,21.76
2023-04-02T09:22:00.869Z,22.05
2023-04-02T09:24:38.327Z,21.51
2023-04-02T09:27:27.271Z,20.52
2023-04-02T09:30:30.630Z,21.06
2023-04-02T09:33:07.402Z,22.30
2023-04-02T09:35:53.959Z,21.79
2023-04-02T09:38:37.356Z,22.58
2023-04-02T09:41:24.496Z,22.21
2023-04-02T09:44:16.695Z,22.17
2023-04-02T09:46:56.693Z,23.99
2023-04-02T09:49:42.023Z,22.81
2023-04-02T09:52:21.904Z,23.67
2023-04-02T09:55:26.104Z,22.36
2023-04-02T09:58:14.048Z,23.34
2023-04-02T10:00:54.719Z,23.88
2023-04-02T10:03:53.755Z,25.75
2023-04-02T10:06:25.219Z,26.12
2023-04-02T10:09:18.772Z,25.53
2023-04-02T10:12:16.915Z,26.47
2023-04-02T10:17:27.908Z,23.25
2023-04-02T10:20:09.701Z,24.03
2023-04-02T10:22:42.744Z,25.55
2023-04-02T10:25:24.178Z,24.03
2023-04-02T10:28:23.042Z,23.04
2023-04-02T10:31:07.610Z,25.46
2023-04-02T10:33:41.180Z,21.65
2023-04-02T10:36:48.973Z,22.88
2023-04-02T10:39:48.952Z,23.84
2023-04-02T10:43:20.186Z,21.20
2023-04-02T10:46:47.706Z,24.13
2023-04-02T10:49:53.204Z,23.30
2023-04-02T10:52:51.265Z,25.52
2023-04-02T10:55:32.615Z,25.07
2023-04-02T10:58:24.809Z,23.99
2023-04-02T11:01:07.213Z,22.21
2023-04-02T11:03:45.134Z,25.22
2023-04-02T11:06:28.666Z,24.09
2023-04-02T11:09:19.872Z,28.01
2023-04-02T11:11:53.989Z,23.71
2023-04-02T11:14:32.105Z,20.16
2023-04-02T11:17:08.296Z,22.91
2023-04-02T11:19:38.083Z,18.84
2023-04-02T11:22:21.316Z,17.84
2023-04-02T11:24:56.954Z,19.94
2023-04-02T11:27:36.104Z,21.64
2023-04-02T11:30:16.213Z,24.19
2023-04-02T11:32:49.960Z,23.15
2023-04-02T11:35:32.625Z,24.85
2023-04-02T11:38:26.210Z,23.04
2023-04-02T11:40:56.511Z,24.81
2023-04-02T11:43:41.739Z,27.75
2023-04-02T11:46:39.648Z,27.86
2023-04-02T11:49:38.483Z,26.34
2023-04-02T11:52:21.667Z,23.73
2023-04-02T11:55:28.999Z,28.20
2023-04-02T11:59:08.524Z,28.05
2023-04-02T12:02:00.248Z,21.36
2023-04-02T12:04:51.030Z,23.76
2023-04-02T12:07:47.023Z,29.13
2023-04-02T12:10:23.370Z,31.39
2023-04-02T12:12:54.086Z,32.03
2023-04-02T12:15:55.086Z,29.83
2023-04-02T12:18:24.873Z,33.38
2023-04-02T12:20:59.078Z,34.35
2023-04-02T12:23:37.856Z,32.08
2023-04-02T12:26:30.282Z,34.51
2023-04-02T12:29:26.480Z,36.63
2023-04-02T12:31:59.233Z,35.25
2023-04-02T12:34:35.261Z,34.23
2023-04-02T12:37:05.783Z,29.30
2023-04-02T12:39:35.368Z,26.54
2023-04-02T12:42:04.120Z,22.46
2023-04-02T12:44:33.710Z,25.13
2023-04-02T12:47:09.636Z,25.13
2023-04-02T12:49:43.739Z,21.98
2023-04-02T12:52:22.304Z,21.35
2023-04-02T12:54:55.158Z,20.52
2023-04-02T12:57:25.689Z,20.97
2023-04-02T13:00:00.745Z,23.10
2023-04-02T13:02:44.981Z,21.58
2023-04-02T13:05:12.664Z,20.05
2023-04-02T13:07:42.982Z,19.49
2023-04-02T13:10:30.656Z,20.64
2023-04-02T13:13:03.416Z,22.03
2023-04-02T13:15:37.133Z,21.07
2023-04-02T13:18:13.584Z,20.12
2023-04-02T13:20:43.781Z,20.17
2023-04-02T13:23:29.380Z,22.71
2023-04-02T13:26:03.066Z,23.60
2023-04-02T13:28:31.931Z,23.71
2023-04-02T13:30:59.524Z,24.62
2023-04-02T13:33:27.862Z,23.90
2023-04-02T13:35:55.417Z,24.47
2023-04-02T13:38:22.760Z,23.45
2023-04-02T13:40:54.528Z,24.08
2023-04-02T13:43:22.145Z,24.52
2023-04-02T13:46:00.136Z,24.11
2023-04-02T13:48:29.095Z,24.98
2023-04-02T13:50:59.806Z,25.36
2023-04-02T13:53:36.348Z,23.85
2023-04-02T13:56:03.878Z,23.91
2023-04-02T13:58:31.200Z,22.25
2023-04-02T14:01:01.148Z,20.05
2023-04-02T14:03:33.628Z,19.22
2023-04-02T14:06:16.820Z,18.97
2023-04-02T14:09:02.522Z,21.15
2023-04-02T14:11:56.635Z,19.17
2023-04-02T14:14:51.485Z,18.33
2023-04-02T14:20:56.900Z,17.90
2023-04-02T14:23:52.127Z,17.97
2023-04-02T14:27:16.109Z,18.34
2023-04-02T14:30:28.592Z,18.88
2023-04-02T14:37:33.298Z,18.74
2023-04-02T14:40:23.572Z,19.01
2023-04-02T14:43:05.221Z,17.28
2023-04-02T14:46:38.122Z,17.56
2023-04-02T14:49:56.232Z,16.91
2023-04-02T14:52:42.314Z,17.37
2023-04-02T14:55:39.077Z,16.45
2023-04-02T14:58:18.718Z,17.41
2023-04-02T15:01:05.553Z,17.74
2023-04-02T15:04:03.124Z,16.30
2023-04-02T15:06:52.769Z,15.69
2023-04-02T15:09:45.640Z,16.07
2023-04-02T15:12:29.235Z,17.05
2023-04-02T15:15:24.364Z,17.57
2023-04-02T15:18:01.601Z,16.77
2023-04-02T15:21:24.177Z,16.62
2023-04-02T15:23:58.093Z,16.08
2023-04-02T15:26:36.473Z,15.89
2023-04-02T15:29:44.040Z,17.00
2023-04-02T15:32:39.688Z,17.23
2023-04-02T15:35:11.716Z,19.19
2023-04-02T15:37:45.827Z,17.38
2023-04-02T15:40:59.232Z,18.88
2023-04-02T15:43:38.762Z,18.68
2023-04-02T15:46:15.206Z,17.82
2023-04-02T15:49:42.850Z,18.51
2023-04-02T15:52:18.409Z,19.33
2023-04-02T15:55:02.300Z,19.51
2023-04-02T15:57:58.425Z,19.59
2023-04-02T16:00:58.697Z,18.13
2023-04-02T16:03:59.927Z,19.16
2023-04-02T16:07:43.264Z,18.40
2023-04-02T16:10:41.716Z,19.71
2023-04-02T16:13:36.085Z,19.49
2023-04-02T16:16:36.351Z,19.77
2023-04-02T16:19:41.926Z,18.69
2023-04-02T16:22:18.517Z,18.38
2023-04-02T16:24:56.873Z,18.54
2023-04-02T16:27:41.503Z,18.63
2023-04-02T16:30:20.950Z,18.33
2023-04-02T16:33:31.835Z,18.07
2023-04-02T16:36:08.408Z,17.39
2023-04-02T16:38:48.590Z,17.20
2023-04-02T16:41:53.318Z,17.94
2023-04-02T16:44:42.231Z,17.05
2023-04-02T16:47:28.641Z,16.90
2023-04-02T16:50:01.870Z,16.54
2023-04-02T16:52:56.484Z,16.09
2023-04-02T16:55:48.902Z,15.35
2023-04-02T16:58:43.909Z,15.32
2023-04-02T17:01:44.823Z,14.67
2023-04-02T17:04:51.354Z,13.61
2023-04-02T17:08:13.681Z,14.94
2023-04-02T17:10:58.057Z,15.36
2023-04-02T17:14:06.242Z,15.35
2023-04-02T17:16:41.056Z,15.27
2023-04-02T17:19:15.982Z,14.95
2023-04-02T17:21:49.013Z,14.26
2023-04-02T17:24:39.216Z,13.62
2023-04-02T17:27:30.578Z,14.41
2023-04-02T17:30:43.625Z,14.76
2023-04-02T17:33:22.261Z,15.20
2023-04-02T17:36:08.518Z,15.60
2023-04-02T17:39:07.581Z,16.20
2023-04-02T17:41:50.189Z,14.74
2023-04-02T17:44:44.204Z,15.96
2023-04-02T17:47:25.193Z,16.34
2023-04-02T17:50:12.954Z,16.42
2023-04-02T17:53:28.644Z,16.01
2023-04-02T17:56:51.458Z,16.05
2023-04-02T17:59:32.080Z,15.97
2023-04-02T18:02:09.264Z,16.37
2023-04-02T18:04:46.828Z,15.80
2023-04-02T18:07:32.417Z,15.42
2023-04-02T18:10:12.500Z,15.67
2023-04-02T18:12:51.993Z,15.64
2023-04-02T18:15:30.176Z,15.73
2023-04-02T18:18:32.287Z,15.40
2023-04-02T18:21:06.723Z,15.67
2023-04-02T18:23:55.805Z,15.35
2023-04-02T18:26:38.484Z,15.49
2023-04-02T18:29:15.272Z,15.32
2023-04-02T18:31:49.510Z,15.75
2023-04-02T18:34:28.577Z,15.70
2023-04-02T18:37:05.437Z,15.43
2023-04-02T18:39:39.676Z,15.25
2023-04-02T18:42:16.663Z,15.07
2023-04-02T18:45:01.011Z,14.87
2023-04-02T18:47:42.970Z,15.18
2023-04-02T18:50:19.005Z,15.28
2023-04-02T18:52:48.833Z,15.43
2023-04-02T18:55:22.688Z,15.40
2023-04-02T18:57:59.233Z,15.63
2023-04-02T19:00:34.885Z,15.50
2023-04-02T19:03:09.300Z,15.36
2023-04-02T19:05:45.710Z,15.35
2023-04-02T19:08:24.498Z,15.34
2023-04-02T19:10:59.866Z,15.43
2023-04-02T19:13:30.778Z,15.42
2023-04-02T19:16:13.021Z,15.10
2023-04-02T19:18:50.114Z,15.18
2023-04-02T19:21:33.148Z,15.14
2023-04-02T19:24:13.309Z,15.25
2023-04-02T19:27:09.007Z,15.22
2023-04-02T19:29:52.224Z,15.30
2023-04-02T19:32:30.398Z,15.14
2023-04-02T19:35:15.321Z,15.31
2023-04-02T19:38:06.075Z,15.32
2023-04-02T19:40:54.745Z,15.31
2023-04-02T19:43:30.357Z,15.16
2023-04-02T19:46:04.647Z,15.15
2023-04-02T19:48:49.014Z,15.03
2023-04-02T19:51:17.589Z,15.43
2023-04-02T19:53:48.163Z,15.14
2023-04-02T19:56:16.129Z,14.92
2023-04-02T19:58:45.174Z,15.28
2023-04-02T20:01:13.403Z,15.21
2023-04-02T20:03:47.307Z,15.27
2023-04-02T20:06:17.905Z,15.64
2023-04-02T20:08:47.355Z,15.39
2023-04-02T20:11:16.075Z,15.57
2023-04-02T20:13:46.813Z,15.81
2023-04-02T20:16:14.824Z,15.61
2023-04-02T20:18:43.129Z,15.36
2023-04-02T20:21:11.640Z,15.21
2023-04-02T20:23:44.353Z,15.21
2023-04-02T20:26:13.202Z,15.00
2023-04-02T20:28:44.803Z,14.79
2023-04-02T20:31:18.392Z,14.91
2023-04-02T20:33:55.318Z,14.77
2023-04-02T20:36:25.066Z,14.89
2023-04-02T20:38:53.126Z,14.77
2023-04-02T20:41:24.260Z,14.79
2023-04-02T20:43:52.308Z,14.67
2023-04-02T20:46:20.510Z,14.52
2023-04-02T20:48:48.353Z,14.23
2023-04-02T20:51:18.782Z,14.55
2023-04-02T20:53:46.814Z,14.52
2023-04-02T20:56:18.608Z,14.27
2023-04-02T20:58:46.301Z,14.25
2023-04-02T21:01:20.283Z,14.17
2023-04-02T21:03:49.934Z,14.08
2023-04-02T21:06:21.677Z,13.93
2023-04-02T21:08:50.313Z,13.91
2023-04-02T21:11:18.850Z,13.78
2023-04-02T21:13:46.696Z,13.78
2023-04-02T21:16:20.702Z,13.75
2023-04-02T21:18:51.200Z,13.75
2023-04-02T21:21:21.188Z,13.74
2023-04-02T21:23:59.534Z,13.94
2023-04-02T21:26:34.213Z,13.73
2023-04-02T21:29:04.327Z,13.85
2023-04-02T21:31:37.731Z,13.50
2023-04-02T21:34:07.359Z,13.67
2023-04-02T21:36:41.285Z,13.63
2023-04-02T21:39:18.995Z,13.99
2023-04-02T21:41:52.214Z,13.51
2023-04-02T21:44:23.194Z,13.93
2023-04-02T21:46:53.980Z,13.78
2023-04-02T21:49:23.477Z,13.45
2023-04-02T21:51:52.083Z,13.61
2023-04-02T21:54:20.304Z,13.76
2023-04-02T21:56:49.202Z,13.89
2023-04-02T21:59:18.528Z,13.87
2023-04-02T22:01:53.767Z,13.47
2023-04-02T22:04:25.526Z,13.49
2023-04-02T22:06:55.932Z,13.55
2023-04-02T22:09:26.857Z,13.41
2023-04-02T22:11:59.437Z,13.70
2023-04-02T22:14:27.676Z,13.53
2023-04-02T22:16:55.869Z,13.36
2023-04-02T22:19:23.701Z,13.50
2023-04-02T22:21:54.346Z,13.81
2023-04-02T22:24:22.612Z,13.45
2023-04-02T22:26:50.662Z,13.45
2023-04-02T22:29:18.313Z,13.31
2023-04-02T22:31:48.782Z,13.29
2023-04-02T22:34:16.355Z,13.23
2023-04-02T22:36:45.821Z,13.17
2023-04-02T22:39:13.491Z,13.31
2023-04-02T22:42:27.986Z,13.47
2023-04-02T22:44:40.100Z,13.12
2023-04-02T22:47:07.597Z,13.02
2023-04-02T22:49:34.855Z,13.10
2023-04-02T22:52:05.848Z,13.22
2023-04-02T22:54:33.306Z,12.98
2023-04-02T22:57:01.003Z,13.05
2023-04-02T22:59:33.364Z,12.89
2023-04-02T23:02:04.057Z,13.02
2023-04-02T23:04:32.732Z,12.80
2023-04-02T23:07:01.826Z,12.74
2023-04-02T23:09:33.665Z,12.78
2023-04-02T23:12:03.481Z,12.79
2023-04-02T23:14:31.136Z,12.98
2023-04-02T23:16:58.568Z,12.70
2023-04-02T23:19:28.059Z,13.14
2023-04-02T23:21:55.588Z,13.04
2023-04-02T23:24:22.881Z,12.75
2023-04-02T23:26:50.381Z,12.94
2023-04-02T23:29:17.664Z,12.91
2023-04-02T23:31:47.728Z,13.00
2023-04-02T23:34:15.308Z,12.98
2023-04-02T23:36:42.793Z,12.92
2023-04-02T23:39:13.326Z,12.63
2023-04-02T23:41:43.793Z,12.77
2023-04-02T23:44:12.713Z,12.68
2023-04-02T23:46:40.360Z,12.72
2023-04-02T23:49:11.639Z,12.92
2023-04-02T23:51:39.354Z,12.63
2023-04-02T23:54:06.819Z,12.63
2023-04-02T23:56:34.131Z,12.49
2023-04-02T23:59:03.940Z,12.45
